createdAt,value
2024-03-10T00:01:08.379Z,96950.78
2024-03-10T00:03:36.869Z,96937.41
2024-03-10T00:06:05.182Z,96929.13
2024-03-10T00:08:33.644Z,96926.59
2024-03-10T00:11:01.576Z,96927.50
2024-03-10T00:13:29.463Z,96929.13
2024-03-10T00:15:59.542Z,96924.16
2024-03-10T00:18:28.003Z,96919.13
2024-03-10T00:20:56.044Z,96915.75
2024-03-10T00:23:25.274Z,96917.47
2024-03-10T00:25:53.140Z,96911.66
2024-03-10T00:28:21.193Z,96898.25
2024-03-10T00:30:49.669Z,96889.84
2024-03-10T00:33:19.018Z,96887.41
2024-03-10T00:35:48.078Z,96868.22
2024-03-10T00:38:16.017Z,96859.94
2024-03-10T00:40:43.923Z,96845.69
2024-03-10T00:43:11.993Z,96839.94
2024-03-10T00:45:40.235Z,96822.34
2024-03-10T00:48:08.571Z,96801.44
2024-03-10T00:50:37.845Z,96792.31
2024-03-10T00:53:06.662Z,96778.81
2024-03-10T00:55:34.512Z,96778.09
2024-03-10T00:58:02.451Z,96771.38
2024-03-10T01:00:30.814Z,96773.91
2024-03-10T01:02:58.662Z,96766.38
2024-03-10T01:05:26.769Z,96760.56
2024-03-10T01:07:56.056Z,96743.84
2024-03-10T01:10:24.270Z,96727.22
2024-03-10T01:12:52.054Z,96701.25
2024-03-10T01:15:20.306Z,96692.09
2024-03-10T01:17:48.131Z,96684.66
2024-03-10T01:20:16.059Z,96672.13
2024-03-10T01:22:45.918Z,96666.41
2024-03-10T01:25:15.151Z,96658.06
2024-03-10T01:27:44.676Z,96645.44
2024-03-10T01:30:13.773Z,96655.53
2024-03-10T01:32:41.808Z,96663.88
2024-03-10T01:35:10.472Z,96664.75
2024-03-10T01:37:39.116Z,96670.56
2024-03-10T01:40:08.388Z,96663.88
2024-03-10T01:42:37.601Z,96657.97
2024-03-10T01:45:06.220Z,96658.06
2024-03-10T01:47:34.726Z,96653.13
2024-03-10T01:50:03.292Z,96639.72
2024-03-10T01:52:32.765Z,96642.25
2024-03-10T01:55:02.617Z,96637.25
2024-03-10T01:57:31.534Z,96629.78
2024-03-10T02:00:03.409Z,96613.03
2024-03-10T02:02:41.535Z,96610.63
2024-03-10T02:05:10.374Z,96597.22
2024-03-10T02:07:38.273Z,96591.41
2024-03-10T02:10:08.384Z,96588.88
2024-03-10T02:12:36.894Z,96584.81
2024-03-10T02:15:07.875Z,96589.00
2024-03-10T02:17:37.536Z,96587.34
2024-03-10T02:20:15.663Z,96590.69
2024-03-10T02:22:44.990Z,96577.25
2024-03-10T02:25:14.229Z,96568.91
2024-03-10T02:27:45.903Z,96562.22
2024-03-10T02:30:20.568Z,96560.66
2024-03-10T02:33:06.260Z,96552.25
2024-03-10T02:35:52.138Z,96549.03
2024-03-10T02:38:37.556Z,96526.44
2024-03-10T02:41:22.882Z,96514.84
2024-03-10T02:44:18.182Z,96501.50
2024-03-10T02:47:04.065Z,96498.22
2024-03-10T02:49:31.998Z,96492.44
2024-03-10T02:51:59.788Z,96492.44
2024-03-10T02:54:27.629Z,96474.03
2024-03-10T02:56:55.884Z,96469.03
2024-03-10T02:59:25.936Z,96461.53
2024-03-10T03:01:53.899Z,96453.25
2024-03-10T03:04:22.574Z,96447.38
2024-03-10T03:06:50.374Z,96445.75
2024-03-10T03:09:17.244Z,96443.28
2024-03-10T03:11:45.171Z,96445.00
2024-03-10T03:14:14.446Z,96435.78
2024-03-10T03:16:44.499Z,96431.63
2024-03-10T03:19:14.329Z,96438.31
2024-03-10T03:21:42.299Z,96434.19
2024-03-10T03:24:10.421Z,96440.09
2024-03-10T03:26:38.691Z,96440.91
2024-03-10T03:29:08.144Z,96442.56
2024-03-10T03:31:35.977Z,96441.66
2024-03-10T03:34:05.188Z,96455.03
2024-03-10T03:36:33.905Z,96457.50
2024-03-10T03:39:01.736Z,96461.69
2024-03-10T03:41:29.572Z,96457.44
2024-03-10T03:43:57.440Z,96457.50
2024-03-10T03:46:25.275Z,96451.78
2024-03-10T03:48:53.137Z,96438.44
2024-03-10T03:51:22.310Z,96430.94
2024-03-10T03:53:50.171Z,96421.78
2024-03-10T03:56:18.146Z,96416.84
2024-03-10T03:58:46.060Z,96398.41
2024-03-10T04:01:14.048Z,96393.50
2024-03-10T04:03:43.688Z,96394.41
2024-03-10T04:06:11.497Z,96379.28
2024-03-10T04:08:40.809Z,96371.78
2024-03-10T04:11:08.726Z,96376.00
2024-03-10T04:13:36.618Z,96381.88
2024-03-10T04:16:06.925Z,96377.72
2024-03-10T04:18:35.742Z,96368.59
2024-03-10T04:21:05.531Z,96358.53
2024-03-10T04:23:33.470Z,96352.72
2024-03-10T04:26:03.739Z,96346.94
2024-03-10T04:28:31.589Z,96341.06
2024-03-10T04:30:59.630Z,96353.63
2024-03-10T04:33:27.624Z,96347.75
2024-03-10T04:35:55.486Z,96352.72
2024-03-10T04:38:24.825Z,96353.53
2024-03-10T04:40:52.758Z,96360.22
2024-03-10T04:43:23.702Z,96352.88
2024-03-10T04:45:52.410Z,96341.13
2024-03-10T04:48:20.291Z,96340.38
2024-03-10T04:50:48.085Z,96338.66
2024-03-10T04:53:16.055Z,96346.19
2024-03-10T04:55:45.102Z,96351.16
2024-03-10T04:58:13.265Z,96350.28
2024-03-10T05:00:42.458Z,96352.00
2024-03-10T05:03:11.464Z,96346.19
2024-03-10T05:05:39.808Z,96338.72
2024-03-10T05:08:09.586Z,96322.00
2024-03-10T05:10:37.436Z,96327.97
2024-03-10T05:13:05.852Z,96318.75
2024-03-10T05:15:33.665Z,96325.44
2024-03-10T05:18:03.008Z,96327.97
2024-03-10T05:20:30.978Z,96328.78
2024-03-10T05:22:58.904Z,96338.72
2024-03-10T05:25:26.775Z,96340.38
2024-03-10T05:27:54.591Z,96338.72
2024-03-10T05:30:23.066Z,96334.56
2024-03-10T05:32:51.346Z,96329.59
2024-03-10T05:35:21.366Z,96334.66
2024-03-10T05:37:49.518Z,96338.00
2024-03-10T05:40:17.479Z,96332.88
2024-03-10T05:42:45.304Z,96337.09
2024-03-10T05:45:13.140Z,96335.47
2024-03-10T05:47:41.036Z,96326.34
2024-03-10T05:50:09.327Z,96327.97
2024-03-10T05:52:38.519Z,96328.03
2024-03-10T05:55:08.342Z,96326.34
2024-03-10T05:57:36.629Z,96330.50
2024-03-10T06:00:07.218Z,96341.34
2024-03-10T06:02:39.400Z,96344.69
2024-03-10T06:05:07.723Z,96354.66
2024-03-10T06:07:35.509Z,96363.00
2024-03-10T06:10:06.960Z,96382.16
2024-03-10T06:12:34.900Z,96387.09
2024-03-10T06:15:02.721Z,96399.59
2024-03-10T06:17:34.740Z,96420.50
2024-03-10T06:20:20.198Z,96442.97
2024-03-10T06:23:05.474Z,96469.63
2024-03-10T06:25:34.625Z,96497.16
2024-03-10T06:28:02.464Z,96512.06
2024-03-10T06:30:30.287Z,96544.59
2024-03-10T06:32:58.891Z,96573.78
2024-03-10T06:35:26.875Z,96595.47
2024-03-10T06:37:54.913Z,96607.09
2024-03-10T06:40:23.581Z,96633.75
2024-03-10T06:42:53.285Z,96656.34
2024-03-10T06:45:21.791Z,96670.53
2024-03-10T06:47:49.701Z,96689.75
2024-03-10T06:50:17.730Z,96700.50
2024-03-10T06:52:47.631Z,96725.59
2024-03-10T06:55:16.782Z,96747.28
2024-03-10T06:57:44.946Z,96763.19
2024-03-10T07:00:16.124Z,96786.59
2024-03-10T07:02:47.119Z,96811.66
2024-03-10T07:05:16.836Z,96829.94
2024-03-10T07:07:45.065Z,96851.66
2024-03-10T07:10:13.633Z,96878.44
2024-03-10T07:12:41.652Z,96906.88
2024-03-10T07:15:11.171Z,96932.75
2024-03-10T07:17:42.505Z,96957.00
2024-03-10T07:20:11.876Z,96977.84
2024-03-10T07:22:42.856Z,97002.94
2024-03-10T07:25:12.124Z,97033.03
2024-03-10T07:27:40.813Z,97049.72
2024-03-10T07:30:10.891Z,97076.47
2024-03-10T07:32:40.686Z,97104.09
2024-03-10T07:35:10.321Z,97125.78
2024-03-10T07:37:38.433Z,97159.25
2024-03-10T07:40:08.289Z,97197.00
2024-03-10T07:42:36.120Z,97229.59
2024-03-10T07:45:04.177Z,97265.56
2024-03-10T07:47:32.576Z,97304.97
2024-03-10T07:50:01.962Z,97322.41
2024-03-10T07:52:31.281Z,97366.13
2024-03-10T07:54:59.078Z,97390.38
2024-03-10T07:57:26.922Z,97429.81
2024-03-10T07:59:54.735Z,97458.28
2024-03-10T08:02:22.689Z,97483.44
2024-03-10T08:04:50.654Z,97518.63
2024-03-10T08:07:20.050Z,97560.56
2024-03-10T08:09:47.840Z,97593.28
2024-03-10T08:12:15.794Z,97627.66
2024-03-10T08:14:43.614Z,97666.25
2024-03-10T08:17:11.588Z,97698.13
2024-03-10T08:19:39.455Z,97731.72
2024-03-10T08:22:07.710Z,97766.16
2024-03-10T08:24:38.495Z,97811.59
2024-03-10T08:27:09.319Z,97855.25
2024-03-10T08:29:37.705Z,97882.94
2024-03-10T08:32:07.297Z,97918.22
2024-03-10T08:34:35.136Z,97965.28
2024-03-10T08:37:04.096Z,98014.09
2024-03-10T08:39:32.238Z,98058.66
2024-03-10T08:42:01.374Z,98109.16
2024-03-10T08:44:29.402Z,98151.25
2024-03-10T08:46:57.331Z,98195.00
2024-03-10T08:49:25.207Z,98241.28
2024-03-10T08:51:53.056Z,98285.88
2024-03-10T08:54:20.893Z,98331.41
2024-03-10T08:56:49.950Z,98382.00
2024-03-10T08:59:19.823Z,98419.94
2024-03-10T09:01:47.824Z,98458.72
2024-03-10T09:04:16.972Z,98489.84
2024-03-10T09:06:45.804Z,98526.16
2024-03-10T09:09:15.799Z,98563.28
2024-03-10T09:11:43.661Z,98603.75
2024-03-10T09:14:11.787Z,98642.56
2024-03-10T09:16:40.964Z,98673.00
2024-03-10T09:19:08.916Z,98694.09
2024-03-10T09:21:37.416Z,98720.25
2024-03-10T09:24:06.075Z,98751.50
2024-03-10T09:26:33.997Z,98781.06
2024-03-10T09:29:02.376Z,98811.53
2024-03-10T09:31:31.624Z,98841.13
2024-03-10T09:34:01.309Z,98869.75
2024-03-10T09:36:29.603Z,98907.06
2024-03-10T09:38:57.516Z,98945.09
2024-03-10T09:41:27.329Z,98981.50
2024-03-10T09:43:58.403Z,99016.09
2024-03-10T09:46:26.501Z,99055.00
2024-03-10T09:48:54.602Z,99100.69
2024-03-10T09:51:23.908Z,99149.84
2024-03-10T09:53:51.991Z,99182.81
2024-03-10T09:56:22.651Z,99220.13
2024-03-10T09:59:00.729Z,99259.06
2024-03-10T10:01:30.811Z,99303.97
2024-03-10T10:04:03.013Z,99354.84
2024-03-10T10:06:34.009Z,99396.31
2024-03-10T10:09:08.890Z,99441.28
2024-03-10T10:11:36.904Z,99493.03
2024-03-10T10:14:08.748Z,99536.31
2024-03-10T10:16:45.828Z,99571.03
2024-03-10T10:19:18.309Z,99608.34
2024-03-10T10:21:48.384Z,99646.59
2024-03-10T10:24:16.991Z,99674.63
2024-03-10T10:26:59.846Z,99714.53
2024-03-10T10:29:28.986Z,99738.28
2024-03-10T10:31:58.107Z,99773.16
2024-03-10T10:34:26.636Z,99807.16
2024-03-10T10:36:57.361Z,99840.25
2024-03-10T10:39:28.401Z,99895.53
2024-03-10T10:42:01.782Z,99944.84
2024-03-10T10:44:31.371Z,99995.06
2024-03-10T10:47:02.091Z,100032.47
2024-03-10T10:49:32.733Z,100055.44
2024-03-10T10:52:03.318Z,100078.41
2024-03-10T10:54:31.326Z,100110.78
2024-03-10T10:57:01.456Z,100138.00
2024-03-10T10:59:29.990Z,100175.47
2024-03-10T11:01:58.185Z,100221.47
2024-03-10T11:04:26.573Z,100256.41
2024-03-10T11:06:57.977Z,100281.94
2024-03-10T11:09:32.051Z,100322.00
2024-03-10T11:12:01.136Z,100357.81
2024-03-10T11:14:29.694Z,100421.78
2024-03-10T11:17:14.355Z,100499.31
2024-03-10T11:19:43.603Z,100573.63
2024-03-10T11:22:12.114Z,100631.59
2024-03-10T11:24:41.576Z,100671.72
2024-03-10T11:27:13.662Z,100696.50
2024-03-10T11:29:42.859Z,100711.03
2024-03-10T11:32:36.651Z,100694.78
2024-03-10T11:35:09.386Z,100681.94
2024-03-10T11:37:38.567Z,100675.13
2024-03-10T11:40:11.422Z,100646.97
2024-03-10T11:42:39.671Z,100645.25
2024-03-10T11:45:10.442Z,100653.81
2024-03-10T11:47:38.524Z,100664.88
2024-03-10T11:50:08.036Z,100685.41
2024-03-10T11:52:35.988Z,100698.19
2024-03-10T11:55:12.559Z,100700.69
2024-03-10T11:57:42.849Z,100724.63
2024-03-10T12:00:17.219Z,100754.53
2024-03-10T12:02:46.023Z,100760.53
2024-03-10T12:05:17.261Z,100787.84
2024-03-10T12:07:48.077Z,100833.16
2024-03-10T12:10:20.435Z,100879.31
2024-03-10T12:12:53.463Z,100939.19
2024-03-10T12:15:23.071Z,101005.03
2024-03-10T12:17:51.555Z,101072.69
2024-03-10T12:20:20.765Z,101103.47
2024-03-10T12:22:49.656Z,101156.59
2024-03-10T12:25:19.542Z,101204.50
2024-03-10T12:27:49.171Z,101246.50
2024-03-10T12:30:20.690Z,101261.03
2024-03-10T12:32:52.174Z,101275.59
2024-03-10T12:35:22.460Z,101275.59
2024-03-10T12:37:51.054Z,101275.59
2024-03-10T12:40:19.109Z,101274.75
2024-03-10T12:42:48.424Z,101277.25
2024-03-10T12:45:18.088Z,101296.16
2024-03-10T12:47:47.045Z,101302.97
2024-03-10T12:50:15.778Z,101317.56
2024-03-10T12:52:43.938Z,101312.38
2024-03-10T12:55:12.478Z,101309.81
2024-03-10T12:57:41.453Z,101300.34
2024-03-10T13:00:28.091Z,101290.94
2024-03-10T13:03:00.190Z,101282.38
2024-03-10T13:05:30.784Z,101279.81
2024-03-10T13:08:01.768Z,101284.94
2024-03-10T13:10:30.056Z,101264.34
2024-03-10T13:12:58.236Z,101254.94
2024-03-10T13:15:26.649Z,101252.34
2024-03-10T13:17:55.185Z,101253.19
2024-03-10T13:20:24.534Z,101267.78
2024-03-10T13:22:52.578Z,101267.78
2024-03-10T13:25:20.966Z,101260.03
2024-03-10T13:27:49.001Z,101272.06
2024-03-10T13:30:17.441Z,101269.47
2024-03-10T13:32:46.348Z,101260.03
2024-03-10T13:35:15.589Z,101254.00
2024-03-10T13:37:47.455Z,101246.31
2024-03-10T13:40:18.478Z,101236.91
2024-03-10T13:42:47.280Z,101230.00
2024-03-10T13:45:23.068Z,101225.72
2024-03-10T13:48:00.951Z,101219.72
2024-03-10T13:50:29.647Z,101220.56
2024-03-10T13:52:59.436Z,101217.13
2024-03-10T13:55:27.913Z,101194.78
2024-03-10T13:57:56.117Z,101199.09
2024-03-10T14:00:26.657Z,101192.28
2024-03-10T14:02:56.242Z,101174.22
2024-03-10T14:05:25.603Z,101167.38
2024-03-10T14:07:53.970Z,101157.09
2024-03-10T14:10:23.350Z,101138.25
2024-03-10T14:12:51.300Z,101134.84
2024-03-10T14:15:21.716Z,101127.16
2024-03-10T14:17:49.737Z,101125.41
2024-03-10T14:20:19.576Z,101109.97
2024-03-10T14:22:49.826Z,101113.41
2024-03-10T14:25:18.654Z,101110.00
2024-03-10T14:27:50.880Z,101099.72
2024-03-10T14:30:22.368Z,101069.72
2024-03-10T14:32:54.312Z,101041.50
2024-03-10T14:35:25.089Z,101020.06
2024-03-10T14:37:53.850Z,101004.63
2024-03-10T14:40:23.123Z,100990.13
2024-03-10T14:42:55.084Z,100977.28
2024-03-10T14:45:23.650Z,100964.41
2024-03-10T14:47:52.313Z,100944.75
2024-03-10T14:50:22.778Z,100946.44
2024-03-10T14:52:53.497Z,100958.41
2024-03-10T14:55:21.558Z,100955.81
2024-03-10T14:57:49.399Z,100954.97
2024-03-10T15:00:34.270Z,100936.16
2024-03-10T15:03:03.241Z,100917.31
2024-03-10T15:05:31.564Z,100910.53
2024-03-10T15:07:59.765Z,100898.47
2024-03-10T15:10:28.976Z,100888.28
2024-03-10T15:12:57.134Z,100862.53
2024-03-10T15:15:26.375Z,100856.59
2024-03-10T15:18:02.074Z,100837.78
2024-03-10T15:20:29.971Z,100812.97
2024-03-10T15:23:00.151Z,100788.16
2024-03-10T15:25:30.635Z,100771.06
2024-03-10T15:27:59.012Z,100757.38
2024-03-10T15:30:29.017Z,100734.28
2024-03-10T15:32:57.076Z,100711.19
2024-03-10T15:35:25.047Z,100716.38
2024-03-10T15:37:53.493Z,100694.97
2024-03-10T15:40:22.564Z,100676.16
2024-03-10T15:42:50.983Z,100664.22
2024-03-10T15:45:21.948Z,100649.69
2024-03-10T15:47:55.300Z,100637.72
2024-03-10T15:50:23.741Z,100619.75
2024-03-10T15:52:53.008Z,100610.38
2024-03-10T15:55:22.724Z,100590.75
2024-03-10T15:57:51.786Z,100572.78
2024-03-10T16:00:21.858Z,100551.47
2024-03-10T16:02:55.134Z,100541.22
2024-03-10T16:05:31.060Z,100512.16
2024-03-10T16:07:59.729Z,100500.22
2024-03-10T16:10:27.843Z,100476.31
2024-03-10T16:12:56.079Z,100472.94
2024-03-10T16:15:28.865Z,100449.06
2024-03-10T16:17:58.994Z,100416.59
2024-03-10T16:20:27.133Z,100405.50
2024-03-10T16:22:56.916Z,100383.31
2024-03-10T16:25:25.256Z,100364.59
2024-03-10T16:27:53.329Z,100344.94
2024-03-10T16:30:21.412Z,100329.66
2024-03-10T16:32:51.298Z,100307.47
2024-03-10T16:35:21.138Z,100287.78
2024-03-10T16:37:50.767Z,100273.34
2024-03-10T16:40:19.902Z,100261.38
2024-03-10T16:42:47.817Z,100257.97
2024-03-10T16:45:18.095Z,100252.03
2024-03-10T16:47:47.725Z,100247.75
2024-03-10T16:50:23.725Z,100240.09
2024-03-10T16:52:52.728Z,100233.25
2024-03-10T16:55:21.693Z,100223.03
2024-03-10T16:57:49.577Z,100205.97
2024-03-10T17:00:18.262Z,100193.22
2024-03-10T17:02:47.217Z,100171.06
2024-03-10T17:05:17.062Z,100157.41
2024-03-10T17:07:46.499Z,100140.41
2024-03-10T17:10:14.990Z,100136.09
2024-03-10T17:12:43.014Z,100134.41
2024-03-10T17:15:16.738Z,100111.38
2024-03-10T17:17:45.637Z,100104.59
2024-03-10T17:20:14.588Z,100093.53
2024-03-10T17:22:43.009Z,100082.41
2024-03-10T17:25:13.981Z,100079.06
2024-03-10T17:27:42.758Z,100077.38
2024-03-10T17:30:11.831Z,100074.81
2024-03-10T17:32:42.642Z,100065.41
2024-03-10T17:35:11.263Z,100048.41
2024-03-10T17:37:39.337Z,100035.59
2024-03-10T17:40:08.380Z,100024.53
2024-03-10T17:42:37.622Z,100024.50
2024-03-10T17:45:06.549Z,100020.28
2024-03-10T17:47:36.917Z,100013.44
2024-03-10T17:50:06.708Z,100017.78
2024-03-10T17:52:34.953Z,100007.50
2024-03-10T17:55:07.088Z,100001.53
2024-03-10T17:57:35.091Z,99991.28
2024-03-10T18:00:06.337Z,99971.75
2024-03-10T18:02:35.459Z,99947.06
2024-03-10T18:05:05.102Z,99927.44
2024-03-10T18:07:33.488Z,99919.06
2024-03-10T18:10:05.184Z,99897.72
2024-03-10T18:12:33.532Z,99882.41
2024-03-10T18:15:01.413Z,99871.31
2024-03-10T18:17:30.962Z,99855.16
2024-03-10T18:19:58.871Z,99837.31
2024-03-10T18:22:26.708Z,99829.69
2024-03-10T18:24:54.898Z,99811.84
2024-03-10T18:27:23.114Z,99793.13
2024-03-10T18:29:51.043Z,99782.03
2024-03-10T18:32:18.951Z,99774.38
2024-03-10T18:34:48.193Z,99760.75
2024-03-10T18:37:16.113Z,99756.56
2024-03-10T18:39:44.179Z,99765.88
2024-03-10T18:42:12.075Z,99763.38
2024-03-10T18:44:39.947Z,99762.53
2024-03-10T18:47:07.861Z,99752.28
2024-03-10T18:49:35.826Z,99738.66
2024-03-10T18:52:05.898Z,99734.47
2024-03-10T18:54:33.760Z,99727.66
2024-03-10T18:57:03.364Z,99702.16
2024-03-10T18:59:33.016Z,99687.72
2024-03-10T19:02:00.984Z,99686.81
2024-03-10T19:04:29.018Z,99699.63
2024-03-10T19:06:56.849Z,99707.28
2024-03-10T19:09:26.074Z,99704.66
2024-03-10T19:11:55.190Z,99700.38
2024-03-10T19:14:24.279Z,99697.06
2024-03-10T19:16:52.808Z,99689.44
2024-03-10T19:19:20.675Z,99675.81
2024-03-10T19:21:49.156Z,99669.84
2024-03-10T19:24:17.019Z,99650.28
2024-03-10T19:26:46.377Z,99630.75
2024-03-10T19:29:14.256Z,99607.81
2024-03-10T19:31:44.710Z,99597.66
2024-03-10T19:34:12.660Z,99585.84
2024-03-10T19:36:41.390Z,99572.19
2024-03-10T19:39:10.306Z,99572.19
2024-03-10T19:41:38.363Z,99566.25
2024-03-10T19:44:07.886Z,99551.78
2024-03-10T19:46:35.963Z,99543.34
2024-03-10T19:49:04.969Z,99533.22
2024-03-10T19:51:33.653Z,99513.66
2024-03-10T19:54:01.665Z,99501.78
2024-03-10T19:56:29.534Z,99479.72
2024-03-10T19:58:57.433Z,99466.91
2024-03-10T20:01:27.755Z,99452.50
2024-03-10T20:03:57.652Z,99447.47
2024-03-10T20:06:25.892Z,99433.91
2024-03-10T20:08:53.740Z,99413.53
2024-03-10T20:11:21.680Z,99403.38
2024-03-10T20:13:51.081Z,99400.03
2024-03-10T20:16:18.907Z,99387.25
2024-03-10T20:18:48.172Z,99384.72
2024-03-10T20:21:16.036Z,99377.09
2024-03-10T20:23:43.953Z,99373.75
2024-03-10T20:26:14.270Z,99360.97
2024-03-10T20:28:42.148Z,99355.88
2024-03-10T20:31:09.996Z,99343.13
2024-03-10T20:33:39.593Z,99342.28
2024-03-10T20:36:09.832Z,99340.56
2024-03-10T20:38:40.747Z,99357.56
2024-03-10T20:41:10.110Z,99371.13
2024-03-10T20:43:37.919Z,99385.56
2024-03-10T20:46:05.961Z,99392.34
2024-03-10T20:48:34.159Z,99401.66
2024-03-10T20:51:02.577Z,99404.22
2024-03-10T20:53:31.907Z,99396.53
2024-03-10T20:56:00.166Z,99399.09
2024-03-10T20:58:28.399Z,99395.69
2024-03-10T21:00:56.418Z,99403.31
2024-03-10T21:03:25.223Z,99400.75
2024-03-10T21:05:53.259Z,99395.69
2024-03-10T21:08:21.270Z,99393.13
2024-03-10T21:10:51.417Z,99399.16
2024-03-10T21:13:19.358Z,99387.22
2024-03-10T21:15:47.301Z,99383.84
2024-03-10T21:18:15.196Z,99381.28
2024-03-10T21:20:43.634Z,99369.41
2024-03-10T21:23:13.500Z,99370.25
2024-03-10T21:25:41.812Z,99367.72
2024-03-10T21:28:12.795Z,99360.13
2024-03-10T21:30:41.436Z,99353.31
2024-03-10T21:33:09.787Z,99338.00
2024-03-10T21:35:39.563Z,99330.41
2024-03-10T21:38:09.551Z,99327.03
2024-03-10T21:40:38.761Z,99320.25
2024-03-10T21:43:07.587Z,99315.19
2024-03-10T21:45:39.493Z,99310.88
2024-03-10T21:48:08.801Z,99318.50
2024-03-10T21:50:37.846Z,99321.09
2024-03-10T21:53:06.188Z,99327.88
2024-03-10T21:55:34.189Z,99322.75
2024-03-10T21:58:02.321Z,99320.25
2024-03-10T22:00:32.898Z,99306.66
2024-03-10T22:03:02.151Z,99307.53
2024-03-10T22:05:31.539Z,99297.38
2024-03-10T22:07:59.750Z,99276.13
2024-03-10T22:10:27.612Z,99267.69
2024-03-10T22:12:55.477Z,99253.28
2024-03-10T22:15:23.434Z,99252.50
2024-03-10T22:17:53.786Z,99236.38
2024-03-10T22:20:25.718Z,99223.66
2024-03-10T22:22:56.156Z,99215.19
2024-03-10T22:25:26.571Z,99194.84
2024-03-10T22:27:55.258Z,99189.78
2024-03-10T22:30:26.893Z,99174.53
2024-03-10T22:32:55.734Z,99154.16
2024-03-10T22:35:28.154Z,99132.97
2024-03-10T22:37:57.070Z,99119.47
2024-03-10T22:40:25.486Z,99105.06
2024-03-10T22:42:55.363Z,99088.13
2024-03-10T22:45:30.308Z,99072.88
2024-03-10T22:48:01.864Z,99068.69
2024-03-10T22:50:31.831Z,99057.66
2024-03-10T22:53:03.821Z,99044.13
2024-03-10T22:55:33.355Z,99035.66
2024-03-10T22:58:02.157Z,99031.47
2024-03-10T23:00:38.797Z,99014.50
2024-03-10T23:06:35.226Z,98983.19
2024-03-10T23:09:05.793Z,98968.75
2024-03-10T23:11:33.716Z,98968.81
2024-03-10T23:14:01.683Z,98954.44
2024-03-10T23:16:29.537Z,98945.97
2024-03-10T23:18:57.323Z,98937.56
2024-03-10T23:21:25.154Z,98938.41
2024-03-10T23:23:54.290Z,98927.34
2024-03-10T23:26:22.299Z,98928.22
2024-03-10T23:28:50.156Z,98930.72
2024-03-10T23:31:18.557Z,98936.69
2024-03-10T23:33:46.375Z,98943.41
2024-03-10T23:36:14.195Z,98957.00
2024-03-10T23:38:43.358Z,98954.44
2024-03-10T23:41:13.168Z,98948.50
2024-03-10T23:43:42.085Z,98944.25
2024-03-10T23:46:09.908Z,98948.50
2024-03-10T23:48:37.807Z,98950.22
2024-03-10T23:51:06.430Z,98946.03
2024-03-10T23:53:35.011Z,98938.34
2024-03-10T23:56:05.843Z,98925.72
2024-03-10T23:58:37.795Z,98913.84
